sensor_id;sensor_type;location;lat;lon;timestamp;P1;durP1;ratioP1;P2;durP2;ratioP2
37535;SDS011;23379;51.554;6.736;2022-07-23T00:01:30;20.25;;;1.13;;
37535;SDS011;23379;51.554;6.736;2022-07-23T00:03:56;0.57;;;0.57;;
37535;SDS011;23379;51.554;6.736;2022-07-23T00:06:22;0.60;;;0.60;;
37535;SDS011;23379;51.554;6.736;2022-07-23T00:08:48;1.45;;;0.77;;
37535;SDS011;23379;51.554;6.736;2022-07-23T00:11:14;0.88;;;0.82;;
37535;SDS011;23379;51.554;6.736;2022-07-23T00:13:39;0.57;;;0.57;;
37535;SDS011;23379;51.554;6.736;2022-07-23T00:16:05;0.73;;;0.73;;
37535;SDS011;23379;51.554;6.736;2022-07-23T00:18:31;0.68;;;0.68;;
37535;SDS011;23379;51.554;6.736;2022-07-23T00:20:56;0.65;;;0.65;;
37535;SDS011;23379;51.554;6.736;2022-07-23T00:23:21;0.52;;;0.52;;
37535;SDS011;23379;51.554;6.736;2022-07-23T00:25:47;0.70;;;0.70;;
37535;SDS011;23379;51.554;6.736;2022-07-23T00:28:12;1.65;;;1.02;;
37535;SDS011;23379;51.554;6.736;2022-07-23T00:30:38;1.00;;;1.00;;
37535;SDS011;23379;51.554;6.736;2022-07-23T00:33:04;1.52;;;0.80;;
37535;SDS011;23379;51.554;6.736;2022-07-23T00:35:35;0.82;;;0.82;;
37535;SDS011;23379;51.554;6.736;2022-07-23T00:38:01;0.85;;;0.85;;
37535;SDS011;23379;51.554;6.736;2022-07-23T00:40:29;0.70;;;0.70;;
37535;SDS011;23379;51.554;6.736;2022-07-23T00:42:55;0.73;;;0.70;;
37535;SDS011;23379;51.554;6.736;2022-07-23T00:45:21;1.27;;;1.17;;
37535;SDS011;23379;51.554;6.736;2022-07-23T00:47:47;0.60;;;0.60;;
37535;SDS011;23379;51.554;6.736;2022-07-23T00:50:12;4.25;;;1.55;;
37535;SDS011;23379;51.554;6.736;2022-07-23T00:52:39;0.73;;;0.73;;
37535;SDS011;23379;51.554;6.736;2022-07-23T00:55:06;0.70;;;0.70;;
37535;SDS011;23379;51.554;6.736;2022-07-23T00:57:32;0.50;;;0.50;;
37535;SDS011;23379;51.554;6.736;2022-07-23T00:59:58;1.20;;;0.98;;
37535;SDS011;23379;51.554;6.736;2022-07-23T01:02:24;0.98;;;0.93;;
37535;SDS011;23379;51.554;6.736;2022-07-23T01:04:50;0.63;;;0.63;;
37535;SDS011;23379;51.554;6.736;2022-07-23T01:07:16;0.52;;;0.52;;
37535;SDS011;23379;51.554;6.736;2022-07-23T01:09:43;0.95;;;0.93;;
37535;SDS011;23379;51.554;6.736;2022-07-23T01:12:09;0.77;;;0.77;;
37535;SDS011;23379;51.554;6.736;2022-07-23T01:14:34;0.70;;;0.70;;
37535;SDS011;23379;51.554;6.736;2022-07-23T01:17:00;1.65;;;0.93;;
37535;SDS011;23379;51.554;6.736;2022-07-23T01:19:25;0.90;;;0.90;;
37535;SDS011;23379;51.554;6.736;2022-07-23T01:21:51;0.80;;;0.80;;
37535;SDS011;23379;51.554;6.736;2022-07-23T01:24:17;0.63;;;0.63;;
37535;SDS011;23379;51.554;6.736;2022-07-23T01:26:45;0.80;;;0.80;;
37535;SDS011;23379;51.554;6.736;2022-07-23T01:29:12;0.82;;;0.82;;
37535;SDS011;23379;51.554;6.736;2022-07-23T01:31:37;23.38;;;2.47;;
37535;SDS011;23379;51.554;6.736;2022-07-23T01:34:03;0.47;;;0.47;;
37535;SDS011;23379;51.554;6.736;2022-07-23T01:36:29;0.73;;;0.65;;
37535;SDS011;23379;51.554;6.736;2022-07-23T01:38:55;0.60;;;0.60;;
37535;SDS011;23379;51.554;6.736;2022-07-23T01:41:20;0.55;;;0.55;;
37535;SDS011;23379;51.554;6.736;2022-07-23T01:43:46;0.82;;;0.82;;
37535;SDS011;23379;51.554;6.736;2022-07-23T01:46:11;1.02;;;0.90;;
37535;SDS011;23379;51.554;6.736;2022-07-23T01:48:37;0.55;;;0.55;;
37535;SDS011;23379;51.554;6.736;2022-07-23T01:51:03;0.77;;;0.63;;
37535;SDS011;23379;51.554;6.736;2022-07-23T01:53:28;0.80;;;0.80;;
37535;SDS011;23379;51.554;6.736;2022-07-23T01:55:56;0.73;;;0.73;;
37535;SDS011;23379;51.554;6.736;2022-07-23T01:58:22;0.75;;;0.70;;
37535;SDS011;23379;51.554;6.736;2022-07-23T02:00:47;1.15;;;1.15;;
37535;SDS011;23379;51.554;6.736;2022-07-23T02:03:13;2.00;;;1.30;;
37535;SDS011;23379;51.554;6.736;2022-07-23T02:05:38;0.95;;;0.95;;
37535;SDS011;23379;51.554;6.736;2022-07-23T02:08:04;0.70;;;0.70;;
37535;SDS011;23379;51.554;6.736;2022-07-23T02:10:30;1.20;;;1.10;;
37535;SDS011;23379;51.554;6.736;2022-07-23T02:12:55;1.50;;;0.95;;
37535;SDS011;23379;51.554;6.736;2022-07-23T02:15:21;3.88;;;1.13;;
37535;SDS011;23379;51.554;6.736;2022-07-23T02:17:46;1.30;;;1.15;;
37535;SDS011;23379;51.554;6.736;2022-07-23T02:20:12;1.08;;;1.00;;
37535;SDS011;23379;51.554;6.736;2022-07-23T02:22:37;1.65;;;0.88;;
37535;SDS011;23379;51.554;6.736;2022-07-23T02:25:04;0.77;;;0.77;;
37535;SDS011;23379;51.554;6.736;2022-07-23T02:27:30;1.08;;;1.08;;
37535;SDS011;23379;51.554;6.736;2022-07-23T02:29:55;1.00;;;1.00;;
37535;SDS011;23379;51.554;6.736;2022-07-23T02:32:22;1.02;;;0.93;;
37535;SDS011;23379;51.554;6.736;2022-07-23T02:34:47;1.77;;;0.80;;
37535;SDS011;23379;51.554;6.736;2022-07-23T02:37:13;0.70;;;0.70;;
37535;SDS011;23379;51.554;6.736;2022-07-23T02:39:39;1.02;;;1.02;;
37535;SDS011;23379;51.554;6.736;2022-07-23T02:42:04;0.57;;;0.57;;
37535;SDS011;23379;51.554;6.736;2022-07-23T02:44:29;0.65;;;0.65;;
37535;SDS011;23379;51.554;6.736;2022-07-23T02:46:55;1.33;;;1.25;;
37535;SDS011;23379;51.554;6.736;2022-07-23T02:49:20;2.67;;;1.73;;
37535;SDS011;23379;51.554;6.736;2022-07-23T02:51:46;1.40;;;1.30;;
37535;SDS011;23379;51.554;6.736;2022-07-23T02:54:11;0.85;;;0.85;;
37535;SDS011;23379;51.554;6.736;2022-07-23T02:56:37;1.10;;;1.00;;
37535;SDS011;23379;51.554;6.736;2022-07-23T02:59:02;0.98;;;0.93;;
37535;SDS011;23379;51.554;6.736;2022-07-23T03:01:27;1.45;;;0.93;;
37535;SDS011;23379;51.554;6.736;2022-07-23T03:03:53;4.28;;;2.53;;
37535;SDS011;23379;51.554;6.736;2022-07-23T03:06:18;0.57;;;0.57;;
37535;SDS011;23379;51.554;6.736;2022-07-23T03:08:44;0.65;;;0.65;;
37535;SDS011;23379;51.554;6.736;2022-07-23T03:11:09;0.70;;;0.70;;
37535;SDS011;23379;51.554;6.736;2022-07-23T03:13:39;2.25;;;1.35;;
37535;SDS011;23379;51.554;6.736;2022-07-23T03:16:05;0.95;;;0.90;;
37535;SDS011;23379;51.554;6.736;2022-07-23T03:18:31;1.75;;;1.25;;
37535;SDS011;23379;51.554;6.736;2022-07-23T03:20:57;2.05;;;1.30;;
37535;SDS011;23379;51.554;6.736;2022-07-23T03:23:23;6.82;;;1.20;;
37535;SDS011;23379;51.554;6.736;2022-07-23T03:25:48;0.70;;;0.70;;
37535;SDS011;23379;51.554;6.736;2022-07-23T03:28:16;1.27;;;1.17;;
37535;SDS011;23379;51.554;6.736;2022-07-23T03:30:43;1.83;;;1.05;;
37535;SDS011;23379;51.554;6.736;2022-07-23T03:33:16;0.88;;;0.88;;
37535;SDS011;23379;51.554;6.736;2022-07-23T03:35:43;1.30;;;1.20;;
37535;SDS011;23379;51.554;6.736;2022-07-23T03:38:09;1.33;;;1.27;;
37535;SDS011;23379;51.554;6.736;2022-07-23T03:40:35;0.95;;;0.88;;
37535;SDS011;23379;51.554;6.736;2022-07-23T03:43:00;1.17;;;1.13;;
37535;SDS011;23379;51.554;6.736;2022-07-23T03:45:26;0.80;;;0.80;;
37535;SDS011;23379;51.554;6.736;2022-07-23T03:47:52;1.30;;;0.88;;
37535;SDS011;23379;51.554;6.736;2022-07-23T03:50:18;2.60;;;2.10;;
37535;SDS011;23379;51.554;6.736;2022-07-23T03:52:43;0.93;;;0.88;;
37535;SDS011;23379;51.554;6.736;2022-07-23T03:55:09;1.75;;;1.35;;
37535;SDS011;23379;51.554;6.736;2022-07-23T03:57:34;1.10;;;1.08;;
37535;SDS011;23379;51.554;6.736;2022-07-23T04:00:00;1.40;;;1.30;;
37535;SDS011;23379;51.554;6.736;2022-07-23T04:02:26;2.55;;;1.40;;
37535;SDS011;23379;51.554;6.736;2022-07-23T04:04:52;1.13;;;1.00;;
37535;SDS011;23379;51.554;6.736;2022-07-23T04:07:17;0.88;;;0.88;;
37535;SDS011;23379;51.554;6.736;2022-07-23T04:09:43;1.20;;;1.10;;
37535;SDS011;23379;51.554;6.736;2022-07-23T04:12:09;2.15;;;1.17;;
37535;SDS011;23379;51.554;6.736;2022-07-23T04:14:34;1.20;;;1.10;;
37535;SDS011;23379;51.554;6.736;2022-07-23T04:17:01;2.33;;;2.03;;
37535;SDS011;23379;51.554;6.736;2022-07-23T04:19:26;2.35;;;1.65;;
37535;SDS011;23379;51.554;6.736;2022-07-23T04:21:52;1.88;;;1.77;;
37535;SDS011;23379;51.554;6.736;2022-07-23T04:24:18;1.50;;;1.40;;
37535;SDS011;23379;51.554;6.736;2022-07-23T04:26:43;1.20;;;1.13;;
37535;SDS011;23379;51.554;6.736;2022-07-23T04:29:09;1.90;;;1.77;;
37535;SDS011;23379;51.554;6.736;2022-07-23T04:31:35;2.35;;;1.70;;
37535;SDS011;23379;51.554;6.736;2022-07-23T04:34:01;1.25;;;1.23;;
37535;SDS011;23379;51.554;6.736;2022-07-23T04:36:26;2.20;;;1.63;;
37535;SDS011;23379;51.554;6.736;2022-07-23T04:38:54;1.23;;;1.05;;
37535;SDS011;23379;51.554;6.736;2022-07-23T04:41:20;0.77;;;0.77;;
37535;SDS011;23379;51.554;6.736;2022-07-23T04:43:45;1.20;;;1.10;;
37535;SDS011;23379;51.554;6.736;2022-07-23T04:46:11;1.63;;;1.52;;
37535;SDS011;23379;51.554;6.736;2022-07-23T04:48:36;1.27;;;1.25;;
37535;SDS011;23379;51.554;6.736;2022-07-23T04:51:02;0.82;;;0.82;;
37535;SDS011;23379;51.554;6.736;2022-07-23T04:53:28;1.52;;;1.27;;
37535;SDS011;23379;51.554;6.736;2022-07-23T04:55:53;0.88;;;0.88;;
37535;SDS011;23379;51.554;6.736;2022-07-23T04:58:19;1.38;;;1.27;;
37535;SDS011;23379;51.554;6.736;2022-07-23T05:00:45;1.20;;;1.10;;
37535;SDS011;23379;51.554;6.736;2022-07-23T05:03:12;0.85;;;0.85;;
37535;SDS011;23379;51.554;6.736;2022-07-23T05:05:37;1.52;;;1.23;;
37535;SDS011;23379;51.554;6.736;2022-07-23T05:08:03;0.93;;;0.93;;
37535;SDS011;23379;51.554;6.736;2022-07-23T05:10:29;1.10;;;1.00;;
37535;SDS011;23379;51.554;6.736;2022-07-23T05:12:54;0.50;;;0.50;;
37535;SDS011;23379;51.554;6.736;2022-07-23T05:15:20;1.25;;;1.15;;
37535;SDS011;23379;51.554;6.736;2022-07-23T05:17:45;0.80;;;0.70;;
37535;SDS011;23379;51.554;6.736;2022-07-23T05:20:11;0.77;;;0.77;;
37535;SDS011;23379;51.554;6.736;2022-07-23T05:22:36;1.52;;;1.23;;
37535;SDS011;23379;51.554;6.736;2022-07-23T05:25:02;2.45;;;1.45;;
37535;SDS011;23379;51.554;6.736;2022-07-23T05:27:27;1.90;;;1.08;;
37535;SDS011;23379;51.554;6.736;2022-07-23T05:29:53;1.20;;;0.90;;
37535;SDS011;23379;51.554;6.736;2022-07-23T05:32:18;0.55;;;0.55;;
37535;SDS011;23379;51.554;6.736;2022-07-23T05:34:44;1.65;;;1.40;;
37535;SDS011;23379;51.554;6.736;2022-07-23T05:37:09;1.17;;;1.08;;
37535;SDS011;23379;51.554;6.736;2022-07-23T05:39:34;1.38;;;0.95;;
37535;SDS011;23379;51.554;6.736;2022-07-23T05:42:00;1.40;;;1.30;;
37535;SDS011;23379;51.554;6.736;2022-07-23T05:44:25;1.50;;;1.10;;
37535;SDS011;23379;51.554;6.736;2022-07-23T05:46:52;0.65;;;0.65;;
37535;SDS011;23379;51.554;6.736;2022-07-23T05:49:17;1.00;;;0.98;;
37535;SDS011;23379;51.554;6.736;2022-07-23T05:51:43;1.73;;;1.33;;
37535;SDS011;23379;51.554;6.736;2022-07-23T05:54:08;1.20;;;1.00;;
37535;SDS011;23379;51.554;6.736;2022-07-23T05:56:34;1.10;;;0.80;;
37535;SDS011;23379;51.554;6.736;2022-07-23T05:58:59;0.82;;;0.63;;
37535;SDS011;23379;51.554;6.736;2022-07-23T06:01:24;0.73;;;0.73;;
37535;SDS011;23379;51.554;6.736;2022-07-23T06:03:50;2.15;;;1.52;;
37535;SDS011;23379;51.554;6.736;2022-07-23T06:06:15;1.05;;;0.98;;
37535;SDS011;23379;51.554;6.736;2022-07-23T06:08:40;1.70;;;1.30;;
37535;SDS011;23379;51.554;6.736;2022-07-23T06:11:06;1.27;;;1.17;;
37535;SDS011;23379;51.554;6.736;2022-07-23T06:13:31;3.85;;;1.17;;
37535;SDS011;23379;51.554;6.736;2022-07-23T06:15:57;3.60;;;1.58;;
37535;SDS011;23379;51.554;6.736;2022-07-23T06:18:22;1.02;;;0.88;;
37535;SDS011;23379;51.554;6.736;2022-07-23T06:20:47;0.82;;;0.82;;
37535;SDS011;23379;51.554;6.736;2022-07-23T06:23:13;1.02;;;1.02;;
37535;SDS011;23379;51.554;6.736;2022-07-23T06:25:38;4.93;;;1.85;;
37535;SDS011;23379;51.554;6.736;2022-07-23T06:28:04;6.40;;;1.73;;
37535;SDS011;23379;51.554;6.736;2022-07-23T06:30:29;1.23;;;1.10;;
37535;SDS011;23379;51.554;6.736;2022-07-23T06:32:54;1.38;;;1.27;;
37535;SDS011;23379;51.554;6.736;2022-07-23T06:35:20;0.88;;;0.88;;
37535;SDS011;23379;51.554;6.736;2022-07-23T06:37:45;1.73;;;1.25;;
37535;SDS011;23379;51.554;6.736;2022-07-23T06:40:11;0.75;;;0.68;;
37535;SDS011;23379;51.554;6.736;2022-07-23T06:42:37;1.05;;;0.95;;
37535;SDS011;23379;51.554;6.736;2022-07-23T06:45:04;1.75;;;0.95;;
37535;SDS011;23379;51.554;6.736;2022-07-23T06:47:30;1.63;;;1.27;;
37535;SDS011;23379;51.554;6.736;2022-07-23T06:49:55;1.23;;;1.10;;
37535;SDS011;23379;51.554;6.736;2022-07-23T06:52:21;1.60;;;1.13;;
37535;SDS011;23379;51.554;6.736;2022-07-23T06:54:46;0.85;;;0.85;;
37535;SDS011;23379;51.554;6.736;2022-07-23T06:57:11;0.40;;;0.40;;
37535;SDS011;23379;51.554;6.736;2022-07-23T06:59:37;0.60;;;0.60;;
37535;SDS011;23379;51.554;6.736;2022-07-23T07:02:05;1.83;;;0.90;;
37535;SDS011;23379;51.554;6.736;2022-07-23T07:04:31;0.60;;;0.60;;
37535;SDS011;23379;51.554;6.736;2022-07-23T07:06:57;0.30;;;0.30;;
37535;SDS011;23379;51.554;6.736;2022-07-23T07:09:22;4.05;;;1.05;;
37535;SDS011;23379;51.554;6.736;2022-07-23T07:11:48;0.70;;;0.60;;
37535;SDS011;23379;51.554;6.736;2022-07-23T07:14:13;0.95;;;0.80;;
37535;SDS011;23379;51.554;6.736;2022-07-23T07:16:38;3.00;;;0.98;;
37535;SDS011;23379;51.554;6.736;2022-07-23T07:19:04;1.40;;;1.00;;
37535;SDS011;23379;51.554;6.736;2022-07-23T07:21:29;0.40;;;0.40;;
37535;SDS011;23379;51.554;6.736;2022-07-23T07:23:54;0.68;;;0.68;;
37535;SDS011;23379;51.554;6.736;2022-07-23T07:26:20;0.25;;;0.25;;
37535;SDS011;23379;51.554;6.736;2022-07-23T07:28:45;0.40;;;0.40;;
37535;SDS011;23379;51.554;6.736;2022-07-23T07:31:11;0.38;;;0.38;;
37535;SDS011;23379;51.554;6.736;2022-07-23T07:33:36;0.40;;;0.40;;
37535;SDS011;23379;51.554;6.736;2022-07-23T07:36:02;2.80;;;0.65;;
37535;SDS011;23379;51.554;6.736;2022-07-23T07:38:27;1.27;;;0.65;;
37535;SDS011;23379;51.554;6.736;2022-07-23T07:40:53;3.97;;;1.10;;
37535;SDS011;23379;51.554;6.736;2022-07-23T07:43:18;1.05;;;0.65;;
37535;SDS011;23379;51.554;6.736;2022-07-23T07:45:44;0.25;;;0.25;;
37535;SDS011;23379;51.554;6.736;2022-07-23T07:48:09;0.68;;;0.50;;
37535;SDS011;23379;51.554;6.736;2022-07-23T07:50:35;0.70;;;0.65;;
37535;SDS011;23379;51.554;6.736;2022-07-23T07:53:03;0.85;;;0.40;;
37535;SDS011;23379;51.554;6.736;2022-07-23T07:55:35;1.00;;;0.40;;
37535;SDS011;23379;51.554;6.736;2022-07-23T07:58:04;1.35;;;0.52;;
37535;SDS011;23379;51.554;6.736;2022-07-23T08:00:46;0.57;;;0.57;;
37535;SDS011;23379;51.554;6.736;2022-07-23T08:06:09;0.68;;;0.50;;
37535;SDS011;23379;51.554;6.736;2022-07-23T08:08:39;0.45;;;0.30;;
37535;SDS011;23379;51.554;6.736;2022-07-23T08:11:13;0.13;;;0.13;;
37535;SDS011;23379;51.554;6.736;2022-07-23T08:13:38;0.80;;;0.60;;
37535;SDS011;23379;51.554;6.736;2022-07-23T08:16:09;0.30;;;0.30;;
37535;SDS011;23379;51.554;6.736;2022-07-23T08:18:35;0.43;;;0.28;;
37535;SDS011;23379;51.554;6.736;2022-07-23T08:21:16;3.03;;;0.68;;
37535;SDS011;23379;51.554;6.736;2022-07-23T08:23:42;2.60;;;0.52;;
37535;SDS011;23379;51.554;6.736;2022-07-23T08:26:13;0.45;;;0.20;;
37535;SDS011;23379;51.554;6.736;2022-07-23T08:28:38;0.35;;;0.30;;
37535;SDS011;23379;51.554;6.736;2022-07-23T08:31:04;1.65;;;0.40;;
37535;SDS011;23379;51.554;6.736;2022-07-23T08:33:30;0.65;;;0.30;;
37535;SDS011;23379;51.554;6.736;2022-07-23T08:35:56;0.52;;;0.38;;
37535;SDS011;23379;51.554;6.736;2022-07-23T08:38:22;1.08;;;0.60;;
37535;SDS011;23379;51.554;6.736;2022-07-23T08:40:52;0.80;;;0.32;;
37535;SDS011;23379;51.554;6.736;2022-07-23T08:43:39;1.38;;;0.32;;
37535;SDS011;23379;51.554;6.736;2022-07-23T09:02:16;0.35;;;0.28;;
37535;SDS011;23379;51.554;6.736;2022-07-23T09:04:41;1.63;;;0.63;;
37535;SDS011;23379;51.554;6.736;2022-07-23T09:07:07;0.30;;;0.20;;
37535;SDS011;23379;51.554;6.736;2022-07-23T09:09:33;4.18;;;0.80;;
37535;SDS011;23379;51.554;6.736;2022-07-23T09:12:06;1.13;;;0.65;;
37535;SDS011;23379;51.554;6.736;2022-07-23T09:14:50;0.08;;;0.08;;
37535;SDS011;23379;51.554;6.736;2022-07-23T09:17:17;1.05;;;0.15;;
37535;SDS011;23379;51.554;6.736;2022-07-23T09:19:44;0.50;;;0.30;;
37535;SDS011;23379;51.554;6.736;2022-07-23T09:22:24;0.10;;;0.10;;
37535;SDS011;23379;51.554;6.736;2022-07-23T09:25:04;0.80;;;0.17;;
37535;SDS011;23379;51.554;6.736;2022-07-23T09:30:18;1.73;;;0.70;;
37535;SDS011;23379;51.554;6.736;2022-07-23T09:33:02;1.73;;;0.20;;
37535;SDS011;23379;51.554;6.736;2022-07-23T09:35:45;0.38;;;0.13;;
37535;SDS011;23379;51.554;6.736;2022-07-23T09:38:14;0.00;;;0.00;;
37535;SDS011;23379;51.554;6.736;2022-07-23T09:40:40;0.25;;;0.22;;
37535;SDS011;23379;51.554;6.736;2022-07-23T09:43:06;1.08;;;0.32;;
37535;SDS011;23379;51.554;6.736;2022-07-23T09:45:31;0.28;;;0.10;;
37535;SDS011;23379;51.554;6.736;2022-07-23T09:48:09;0.00;;;0.00;;
37535;SDS011;23379;51.554;6.736;2022-07-23T09:50:39;0.20;;;0.10;;
37535;SDS011;23379;51.554;6.736;2022-07-23T09:53:08;0.10;;;0.00;;
37535;SDS011;23379;51.554;6.736;2022-07-23T09:55:35;0.10;;;0.08;;
37535;SDS011;23379;51.554;6.736;2022-07-23T09:58:07;0.10;;;0.00;;
37535;SDS011;23379;51.554;6.736;2022-07-23T10:00:42;0.00;;;0.00;;
37535;SDS011;23379;51.554;6.736;2022-07-23T10:03:11;0.05;;;0.05;;
37535;SDS011;23379;51.554;6.736;2022-07-23T10:05:37;0.25;;;0.10;;
37535;SDS011;23379;51.554;6.736;2022-07-23T10:08:05;0.52;;;0.15;;
37535;SDS011;23379;51.554;6.736;2022-07-23T10:10:33;1.42;;;0.40;;
37535;SDS011;23379;51.554;6.736;2022-07-23T10:12:59;0.10;;;0.10;;
37535;SDS011;23379;51.554;6.736;2022-07-23T10:15:28;0.20;;;0.05;;
37535;SDS011;23379;51.554;6.736;2022-07-23T10:17:54;0.17;;;0.17;;
37535;SDS011;23379;51.554;6.736;2022-07-23T10:20:20;0.28;;;0.05;;
37535;SDS011;23379;51.554;6.736;2022-07-23T10:23:01;0.50;;;0.10;;
37535;SDS011;23379;51.554;6.736;2022-07-23T10:25:46;0.03;;;0.03;;
37535;SDS011;23379;51.554;6.736;2022-07-23T10:34:25;0.10;;;0.10;;
37535;SDS011;23379;51.554;6.736;2022-07-23T10:37:42;0.13;;;0.10;;
37535;SDS011;23379;51.554;6.736;2022-07-23T10:42:43;0.40;;;0.40;;
37535;SDS011;23379;51.554;6.736;2022-07-23T10:45:27;0.10;;;0.10;;
37535;SDS011;23379;51.554;6.736;2022-07-23T10:48:16;0.10;;;0.10;;
37535;SDS011;23379;51.554;6.736;2022-07-23T10:56:16;0.88;;;0.43;;
37535;SDS011;23379;51.554;6.736;2022-07-23T10:59:02;0.05;;;0.00;;
37535;SDS011;23379;51.554;6.736;2022-07-23T11:01:30;0.63;;;0.20;;
37535;SDS011;23379;51.554;6.736;2022-07-23T11:04:00;0.22;;;0.00;;
37535;SDS011;23379;51.554;6.736;2022-07-23T11:17:35;0.00;;;0.00;;
37535;SDS011;23379;51.554;6.736;2022-07-23T11:25:09;0.38;;;0.08;;
37535;SDS011;23379;51.554;6.736;2022-07-23T11:27:43;0.00;;;0.00;;
37535;SDS011;23379;51.554;6.736;2022-07-23T11:30:36;0.30;;;0.15;;
37535;SDS011;23379;51.554;6.736;2022-07-23T11:35:34;0.10;;;0.03;;
37535;SDS011;23379;51.554;6.736;2022-07-23T11:38:03;0.75;;;0.25;;
37535;SDS011;23379;51.554;6.736;2022-07-23T11:40:30;0.13;;;0.00;;
37535;SDS011;23379;51.554;6.736;2022-07-23T11:42:57;1.02;;;0.20;;
37535;SDS011;23379;51.554;6.736;2022-07-23T11:45:26;0.00;;;0.00;;
37535;SDS011;23379;51.554;6.736;2022-07-23T11:47:56;0.38;;;0.10;;
37535;SDS011;23379;51.554;6.736;2022-07-23T11:50:23;1.40;;;0.20;;
37535;SDS011;23379;51.554;6.736;2022-07-23T11:52:50;0.13;;;0.10;;
37535;SDS011;23379;51.554;6.736;2022-07-23T11:55:15;0.00;;;0.00;;
37535;SDS011;23379;51.554;6.736;2022-07-23T11:57:42;0.30;;;0.13;;
37535;SDS011;23379;51.554;6.736;2022-07-23T12:00:09;0.50;;;0.30;;
37535;SDS011;23379;51.554;6.736;2022-07-23T12:02:37;0.17;;;0.10;;
37535;SDS011;23379;51.554;6.736;2022-07-23T12:05:06;0.17;;;0.00;;
37535;SDS011;23379;51.554;6.736;2022-07-23T12:07:38;0.35;;;0.08;;
37535;SDS011;23379;51.554;6.736;2022-07-23T12:12:49;0.65;;;0.20;;
37535;SDS011;23379;51.554;6.736;2022-07-23T12:15:15;0.00;;;0.00;;
37535;SDS011;23379;51.554;6.736;2022-07-23T12:17:45;0.05;;;0.00;;
37535;SDS011;23379;51.554;6.736;2022-07-23T12:20:15;0.00;;;0.00;;
37535;SDS011;23379;51.554;6.736;2022-07-23T12:22:46;0.30;;;0.05;;
37535;SDS011;23379;51.554;6.736;2022-07-23T12:25:20;0.20;;;0.00;;
37535;SDS011;23379;51.554;6.736;2022-07-23T12:27:57;0.00;;;0.00;;
37535;SDS011;23379;51.554;6.736;2022-07-23T12:30:40;0.00;;;0.00;;
37535;SDS011;23379;51.554;6.736;2022-07-23T12:33:09;0.08;;;0.00;;
37535;SDS011;23379;51.554;6.736;2022-07-23T12:35:40;0.63;;;0.30;;
37535;SDS011;23379;51.554;6.736;2022-07-23T12:38:09;0.20;;;0.00;;
37535;SDS011;23379;51.554;6.736;2022-07-23T12:40:37;0.40;;;0.10;;
37535;SDS011;23379;51.554;6.736;2022-07-23T12:43:18;0.17;;;0.13;;
37535;SDS011;23379;51.554;6.736;2022-07-23T12:50:51;0.00;;;0.00;;
37535;SDS011;23379;51.554;6.736;2022-07-23T12:56:26;0.20;;;0.15;;
37535;SDS011;23379;51.554;6.736;2022-07-23T13:06:30;0.05;;;0.00;;
37535;SDS011;23379;51.554;6.736;2022-07-23T13:08:57;0.73;;;0.10;;
37535;SDS011;23379;51.554;6.736;2022-07-23T13:11:23;0.00;;;0.00;;
37535;SDS011;23379;51.554;6.736;2022-07-23T13:13:48;0.40;;;0.13;;
37535;SDS011;23379;51.554;6.736;2022-07-23T13:16:14;0.00;;;0.00;;
37535;SDS011;23379;51.554;6.736;2022-07-23T13:18:39;0.03;;;0.00;;
37535;SDS011;23379;51.554;6.736;2022-07-23T13:21:05;0.00;;;0.00;;
37535;SDS011;23379;51.554;6.736;2022-07-23T13:23:30;0.65;;;0.22;;
37535;SDS011;23379;51.554;6.736;2022-07-23T13:25:56;0.32;;;0.00;;
37535;SDS011;23379;51.554;6.736;2022-07-23T13:28:21;0.25;;;0.10;;
37535;SDS011;23379;51.554;6.736;2022-07-23T13:30:48;0.25;;;0.15;;
37535;SDS011;23379;51.554;6.736;2022-07-23T13:33:24;0.50;;;0.10;;
37535;SDS011;23379;51.554;6.736;2022-07-23T13:35:51;0.05;;;0.05;;
37535;SDS011;23379;51.554;6.736;2022-07-23T13:38:17;1.55;;;0.55;;
37535;SDS011;23379;51.554;6.736;2022-07-23T13:40:44;0.30;;;0.15;;
37535;SDS011;23379;51.554;6.736;2022-07-23T13:43:12;0.10;;;0.00;;
37535;SDS011;23379;51.554;6.736;2022-07-23T13:45:39;0.20;;;0.10;;
37535;SDS011;23379;51.554;6.736;2022-07-23T13:48:07;0.13;;;0.10;;
37535;SDS011;23379;51.554;6.736;2022-07-23T13:50:34;0.25;;;0.05;;
37535;SDS011;23379;51.554;6.736;2022-07-23T13:53:00;0.10;;;0.00;;
37535;SDS011;23379;51.554;6.736;2022-07-23T13:55:37;0.40;;;0.10;;
37535;SDS011;23379;51.554;6.736;2022-07-23T13:58:03;3.45;;;0.40;;
37535;SDS011;23379;51.554;6.736;2022-07-23T14:00:30;0.10;;;0.00;;
37535;SDS011;23379;51.554;6.736;2022-07-23T14:02:57;0.30;;;0.00;;
37535;SDS011;23379;51.554;6.736;2022-07-23T14:05:23;0.10;;;0.00;;
37535;SDS011;23379;51.554;6.736;2022-07-23T14:07:49;0.00;;;0.00;;
37535;SDS011;23379;51.554;6.736;2022-07-23T14:10:17;0.20;;;0.20;;
37535;SDS011;23379;51.554;6.736;2022-07-23T14:12:44;0.43;;;0.00;;
37535;SDS011;23379;51.554;6.736;2022-07-23T14:15:10;0.10;;;0.00;;
37535;SDS011;23379;51.554;6.736;2022-07-23T14:17:36;1.20;;;0.98;;
37535;SDS011;23379;51.554;6.736;2022-07-23T14:20:03;0.20;;;0.10;;
37535;SDS011;23379;51.554;6.736;2022-07-23T14:22:29;0.22;;;0.10;;
37535;SDS011;23379;51.554;6.736;2022-07-23T14:24:55;0.25;;;0.10;;
37535;SDS011;23379;51.554;6.736;2022-07-23T14:27:22;0.52;;;0.20;;
37535;SDS011;23379;51.554;6.736;2022-07-23T14:29:48;0.55;;;0.20;;
37535;SDS011;23379;51.554;6.736;2022-07-23T14:32:13;0.43;;;0.25;;
37535;SDS011;23379;51.554;6.736;2022-07-23T14:34:39;0.55;;;0.38;;
37535;SDS011;23379;51.554;6.736;2022-07-23T14:37:04;0.45;;;0.40;;
37535;SDS011;23379;51.554;6.736;2022-07-23T14:39:30;0.50;;;0.22;;
37535;SDS011;23379;51.554;6.736;2022-07-23T14:41:55;0.15;;;0.10;;
37535;SDS011;23379;51.554;6.736;2022-07-23T14:44:21;0.47;;;0.20;;
37535;SDS011;23379;51.554;6.736;2022-07-23T14:46:46;0.03;;;0.03;;
37535;SDS011;23379;51.554;6.736;2022-07-23T14:49:12;0.85;;;0.20;;
37535;SDS011;23379;51.554;6.736;2022-07-23T14:51:37;0.35;;;0.35;;
37535;SDS011;23379;51.554;6.736;2022-07-23T14:54:03;0.08;;;0.00;;
37535;SDS011;23379;51.554;6.736;2022-07-23T14:56:29;0.28;;;0.20;;
37535;SDS011;23379;51.554;6.736;2022-07-23T14:58:55;0.95;;;0.55;;
37535;SDS011;23379;51.554;6.736;2022-07-23T15:01:21;0.73;;;0.40;;
37535;SDS011;23379;51.554;6.736;2022-07-23T15:03:47;0.28;;;0.17;;
37535;SDS011;23379;51.554;6.736;2022-07-23T15:06:13;0.00;;;0.00;;
37535;SDS011;23379;51.554;6.736;2022-07-23T15:08:39;0.10;;;0.08;;
37535;SDS011;23379;51.554;6.736;2022-07-23T15:11:04;0.10;;;0.10;;
37535;SDS011;23379;51.554;6.736;2022-07-23T15:13:30;0.52;;;0.20;;
37535;SDS011;23379;51.554;6.736;2022-07-23T15:15:55;0.40;;;0.15;;
37535;SDS011;23379;51.554;6.736;2022-07-23T15:18:20;0.50;;;0.25;;
37535;SDS011;23379;51.554;6.736;2022-07-23T15:20:46;0.45;;;0.35;;
37535;SDS011;23379;51.554;6.736;2022-07-23T15:23:11;0.77;;;0.25;;
37535;SDS011;23379;51.554;6.736;2022-07-23T15:25:38;0.28;;;0.25;;
37535;SDS011;23379;51.554;6.736;2022-07-23T15:28:04;0.30;;;0.20;;
37535;SDS011;23379;51.554;6.736;2022-07-23T15:30:29;0.10;;;0.10;;
37535;SDS011;23379;51.554;6.736;2022-07-23T15:32:56;1.25;;;0.70;;
37535;SDS011;23379;51.554;6.736;2022-07-23T15:35:23;3.15;;;0.38;;
37535;SDS011;23379;51.554;6.736;2022-07-23T15:37:48;0.65;;;0.20;;
37535;SDS011;23379;51.554;6.736;2022-07-23T15:40:13;1.15;;;0.40;;
37535;SDS011;23379;51.554;6.736;2022-07-23T15:42:39;0.20;;;0.20;;
37535;SDS011;23379;51.554;6.736;2022-07-23T15:45:04;0.15;;;0.15;;
37535;SDS011;23379;51.554;6.736;2022-07-23T15:47:30;0.10;;;0.10;;
37535;SDS011;23379;51.554;6.736;2022-07-23T15:49:56;0.13;;;0.13;;
37535;SDS011;23379;51.554;6.736;2022-07-23T15:52:22;0.20;;;0.20;;
37535;SDS011;23379;51.554;6.736;2022-07-23T15:54:47;2.35;;;0.98;;
37535;SDS011;23379;51.554;6.736;2022-07-23T15:57:13;0.98;;;0.50;;
37535;SDS011;23379;51.554;6.736;2022-07-23T15:59:39;1.17;;;0.60;;
37535;SDS011;23379;51.554;6.736;2022-07-23T16:02:05;0.55;;;0.20;;